createdAt,value
2018-05-27T00:02:20.985Z,93.10
2018-05-27T00:04:53.749Z,93.20
2018-05-27T00:07:35.639Z,93.20
2018-05-27T00:10:17.492Z,93.30
2018-05-27T00:12:51.524Z,93.30
2018-05-27T00:15:24.674Z,93.20
2018-05-27T00:18:12.323Z,93.00
2018-05-27T00:20:47.692Z,93.20
2018-05-27T00:23:16.029Z,92.90
2018-05-27T00:26:03.902Z,93.00
2018-05-27T00:28:36.354Z,93.60
2018-05-27T00:31:04.677Z,93.70
2018-05-27T00:33:37.429Z,94.00
2018-05-27T00:36:05.866Z,94.10
2018-05-27T00:38:37.921Z,94.10
2018-05-27T00:41:07.065Z,94.80
2018-05-27T00:43:35.356Z,94.80
2018-05-27T00:46:05.594Z,95.00
2018-05-27T00:48:37.665Z,95.20
2018-05-27T00:51:09.292Z,95.10
2018-05-27T00:53:55.815Z,95.10
2018-05-27T00:56:24.926Z,95.60
2018-05-27T00:58:56.975Z,95.50
2018-05-27T01:01:29.652Z,95.50
2018-05-27T01:04:00.708Z,95.60
2018-05-27T01:06:41.686Z,95.70
2018-05-27T01:09:14.971Z,95.70
2018-05-27T01:11:45.297Z,95.70
2018-05-27T01:14:19.418Z,95.60
2018-05-27T01:16:49.719Z,95.70
2018-05-27T01:19:25.466Z,96.10
2018-05-27T01:21:53.735Z,95.80
2018-05-27T01:24:23.902Z,96.00
2018-05-27T01:26:53.379Z,96.20
2018-05-27T01:29:21.725Z,96.10
2018-05-27T01:32:09.002Z,96.50
2018-05-27T01:34:41.849Z,96.10
2018-05-27T01:37:12.977Z,96.70
2018-05-27T01:39:41.334Z,96.60
2018-05-27T01:42:10.671Z,96.50
2018-05-27T01:44:44.357Z,96.20
2018-05-27T01:47:15.294Z,96.70
2018-05-27T01:49:47.164Z,96.50
2018-05-27T01:52:19.771Z,96.30
2018-05-27T01:54:49.934Z,96.40
2018-05-27T01:57:21.249Z,96.40
2018-05-27T01:59:52.280Z,96.30
2018-05-27T02:02:24.016Z,96.10
2018-05-27T02:04:58.687Z,95.80
2018-05-27T02:07:37.741Z,95.80
2018-05-27T02:10:14.345Z,95.70
2018-05-27T02:12:49.386Z,95.80
2018-05-27T02:15:30.352Z,95.90
2018-05-27T02:18:10.668Z,96.00
2018-05-27T02:20:41.872Z,96.40
2018-05-27T02:23:19.061Z,96.40
2018-05-27T02:25:53.281Z,96.50
2018-05-27T02:28:22.698Z,96.30
2018-05-27T02:30:56.814Z,96.40
2018-05-27T02:33:28.544Z,96.40
2018-05-27T02:36:00.579Z,96.20
2018-05-27T02:38:33.869Z,96.50
2018-05-27T02:44:14.776Z,96.40
2018-05-27T02:46:54.503Z,96.40
2018-05-27T02:49:24.234Z,96.60
2018-05-27T02:52:01.745Z,96.20
2018-05-27T02:54:48.527Z,96.20
2018-05-27T02:57:32.811Z,96.10
2018-05-27T03:00:01.735Z,96.10
2018-05-27T03:02:43.441Z,96.30
2018-05-27T03:05:14.471Z,96.30
2018-05-27T03:08:01.858Z,96.30
2018-05-27T03:10:37.913Z,96.30
2018-05-27T03:13:07.343Z,96.00
2018-05-27T03:15:37.598Z,96.00
2018-05-27T03:18:12.405Z,95.90
2018-05-27T03:20:46.004Z,95.90
2018-05-27T03:23:15.219Z,96.00
2018-05-27T03:25:48.142Z,96.00
2018-05-27T03:28:26.707Z,96.20
2018-05-27T03:31:00.646Z,96.00
2018-05-27T03:33:31.998Z,96.00
2018-05-27T03:36:04.077Z,96.20
2018-05-27T03:38:49.520Z,96.20
2018-05-27T03:41:33.265Z,96.40
2018-05-27T03:44:02.647Z,96.40
2018-05-27T03:46:36.754Z,96.70
2018-05-27T03:49:11.029Z,96.70
2018-05-27T03:51:43.218Z,96.60
2018-05-27T03:54:15.207Z,96.40
2018-05-27T03:56:48.890Z,96.40
2018-05-27T03:59:23.065Z,96.40
2018-05-27T04:02:05.816Z,96.40
2018-05-27T04:04:58.361Z,96.40
2018-05-27T04:07:46.085Z,96.40
2018-05-27T04:10:16.778Z,96.40
2018-05-27T04:12:46.656Z,96.40
2018-05-27T04:15:19.993Z,96.30
2018-05-27T04:17:50.905Z,96.50
2018-05-27T04:20:20.235Z,96.10
2018-05-27T04:22:56.051Z,96.10
2018-05-27T04:25:28.825Z,96.30
2018-05-27T04:27:59.090Z,96.40
2018-05-27T04:30:33.494Z,96.40
2018-05-27T04:33:06.023Z,96.40
2018-05-27T04:35:38.346Z,96.40
2018-05-27T04:38:16.983Z,96.40
2018-05-27T04:40:45.414Z,96.70
2018-05-27T04:43:22.840Z,96.90
2018-05-27T04:45:52.211Z,96.80
2018-05-27T04:48:28.919Z,96.60
2018-05-27T04:50:58.293Z,96.50
2018-05-27T04:53:29.246Z,96.20
2018-05-27T04:56:00.199Z,95.90
2018-05-27T04:58:30.661Z,95.80
2018-05-27T05:01:15.963Z,96.10
2018-05-27T05:03:49.111Z,95.50
2018-05-27T05:06:20.939Z,95.50
2018-05-27T05:08:52.573Z,95.80
2018-05-27T05:11:26.275Z,95.20
2018-05-27T05:14:02.849Z,95.50
2018-05-27T05:16:31.928Z,95.00
2018-05-27T05:19:02.579Z,94.60
2018-05-27T05:21:41.048Z,94.30
2018-05-27T05:24:12.953Z,94.30
2018-05-27T05:26:53.943Z,93.70
2018-05-27T05:29:26.420Z,92.60
2018-05-27T05:32:07.618Z,92.60
2018-05-27T05:35:03.055Z,92.30
2018-05-27T05:37:35.569Z,91.90
2018-05-27T05:40:06.389Z,91.60
2018-05-27T05:42:41.214Z,90.90
2018-05-27T05:45:23.191Z,90.10
2018-05-27T05:48:06.245Z,89.60
2018-05-27T05:50:43.577Z,87.00
2018-05-27T05:53:26.913Z,83.10
2018-05-27T05:55:55.468Z,82.80
2018-05-27T05:58:33.026Z,80.90
2018-05-27T06:01:15.768Z,78.30
2018-05-27T06:03:45.266Z,78.10
2018-05-27T06:06:34.647Z,75.40
2018-05-27T06:09:08.822Z,75.50
2018-05-27T06:11:38.123Z,75.80
2018-05-27T06:14:07.080Z,76.70
2018-05-27T06:16:35.665Z,76.80
2018-05-27T06:19:09.437Z,77.20
2018-05-27T06:21:40.491Z,78.50
2018-05-27T06:24:11.059Z,81.60
2018-05-27T06:26:40.546Z,81.60
2018-05-27T06:29:08.871Z,82.50
2018-05-27T06:31:46.260Z,82.30
2018-05-27T06:34:14.631Z,83.50
2018-05-27T06:36:45.013Z,82.30
2018-05-27T06:39:13.915Z,82.50
2018-05-27T06:41:53.347Z,82.30
2018-05-27T06:44:21.776Z,82.80
2018-05-27T06:46:51.060Z,82.40
2018-05-27T06:49:45.138Z,79.50
2018-05-27T06:52:13.431Z,78.20
2018-05-27T06:54:47.795Z,80.00
2018-05-27T06:57:16.838Z,78.70
2018-05-27T06:59:52.083Z,78.70
2018-05-27T07:02:20.581Z,78.00
2018-05-27T07:04:49.887Z,77.50
2018-05-27T07:07:18.150Z,77.80
2018-05-27T07:09:47.443Z,79.10
2018-05-27T07:12:17.096Z,80.20
2018-05-27T07:14:48.331Z,81.80
2018-05-27T07:17:18.555Z,82.30
2018-05-27T07:19:47.669Z,80.30
2018-05-27T07:22:16.019Z,80.20
2018-05-27T07:24:45.095Z,75.80
2018-05-27T07:27:19.219Z,75.70
2018-05-27T07:29:52.078Z,76.70
2018-05-27T07:32:21.398Z,78.10
2018-05-27T07:35:08.856Z,79.20
2018-05-27T07:37:42.292Z,80.60
2018-05-27T07:40:13.959Z,80.60
2018-05-27T07:42:50.483Z,81.30
2018-05-27T07:45:23.312Z,81.10
2018-05-27T07:48:01.825Z,81.60
2018-05-27T07:50:30.168Z,81.30
2018-05-27T07:55:38.631Z,76.20
2018-05-27T07:58:14.338Z,76.00
2018-05-27T08:00:48.305Z,74.40
2018-05-27T08:03:24.877Z,72.30
2018-05-27T08:05:54.164Z,71.50
2018-05-27T08:08:27.033Z,72.10
2018-05-27T08:11:01.532Z,71.20
2018-05-27T08:13:30.679Z,72.90
2018-05-27T08:16:03.269Z,72.90
2018-05-27T08:18:41.877Z,69.50
2018-05-27T08:21:11.232Z,69.70
2018-05-27T08:23:42.950Z,67.60
2018-05-27T08:26:12.659Z,68.90
2018-05-27T08:28:54.194Z,64.90
2018-05-27T08:31:31.477Z,64.90
2018-05-27T08:34:06.585Z,64.20
2018-05-27T08:36:39.152Z,63.20
2018-05-27T08:39:13.304Z,62.80
2018-05-27T08:41:55.159Z,62.70
2018-05-27T08:44:40.586Z,61.90
2018-05-27T08:47:17.374Z,61.10
2018-05-27T08:49:52.543Z,60.80
2018-05-27T08:55:43.928Z,58.70
2018-05-27T08:58:15.709Z,57.50
2018-05-27T09:03:40.092Z,56.00
2018-05-27T09:06:12.278Z,55.00
2018-05-27T09:08:44.079Z,55.00
2018-05-27T09:11:13.496Z,54.30
2018-05-27T09:13:47.827Z,52.30
2018-05-27T09:16:16.913Z,50.90
2018-05-27T09:19:01.290Z,51.50
2018-05-27T09:21:41.270Z,51.50
2018-05-27T09:24:23.738Z,49.80
2018-05-27T09:27:09.543Z,50.80
2018-05-27T09:29:55.381Z,49.30
2018-05-27T09:32:37.302Z,47.20
2018-05-27T09:35:06.375Z,47.90
2018-05-27T09:37:46.340Z,48.00
2018-05-27T09:40:15.454Z,46.10
2018-05-27T09:42:53.661Z,46.10
2018-05-27T09:45:34.601Z,47.20
2018-05-27T09:48:03.005Z,47.20
2018-05-27T09:50:32.264Z,46.60
2018-05-27T09:53:06.458Z,46.40
2018-05-27T09:55:42.335Z,46.20
2018-05-27T09:58:12.308Z,45.10
2018-05-27T10:00:45.991Z,46.40
2018-05-27T10:03:16.677Z,44.00
2018-05-27T10:05:44.970Z,43.90
2018-05-27T10:08:32.934Z,43.90
2018-05-27T10:11:04.852Z,41.40
2018-05-27T10:13:50.172Z,40.30
2018-05-27T10:16:19.650Z,41.00
2018-05-27T10:18:52.825Z,41.40
2018-05-27T10:21:29.819Z,42.40
2018-05-27T10:23:59.287Z,43.70
2018-05-27T10:26:28.632Z,44.50
2018-05-27T10:29:02.268Z,41.70
2018-05-27T10:31:41.784Z,38.80
2018-05-27T10:34:11.097Z,38.70
2018-05-27T10:36:41.455Z,40.70
2018-05-27T10:39:21.070Z,43.70
2018-05-27T10:42:01.645Z,41.90
2018-05-27T10:44:31.223Z,38.20
2018-05-27T10:53:58.758Z,34.50
2018-05-27T10:56:33.423Z,34.30
2018-05-27T10:59:03.953Z,35.00
2018-05-27T11:01:33.281Z,36.10
2018-05-27T11:04:01.555Z,34.80
2018-05-27T11:06:29.803Z,31.90
2018-05-27T11:08:59.119Z,32.70
2018-05-27T11:11:27.564Z,32.80
2018-05-27T11:14:00.952Z,29.80
2018-05-27T11:16:32.707Z,31.80
2018-05-27T11:19:07.055Z,33.70
2018-05-27T11:21:35.377Z,37.90
2018-05-27T11:24:04.608Z,36.50
2018-05-27T11:26:33.023Z,36.40
2018-05-27T11:29:01.319Z,35.40
2018-05-27T11:31:30.418Z,33.40
2018-05-27T11:33:58.707Z,33.30
2018-05-27T11:36:27.807Z,34.20
2018-05-27T11:39:00.952Z,36.10
2018-05-27T11:41:31.299Z,36.10
2018-05-27T11:44:04.261Z,35.60
2018-05-27T11:46:36.564Z,32.40
2018-05-27T11:49:05.138Z,31.40
2018-05-27T11:51:36.941Z,31.70
2018-05-27T11:54:09.892Z,29.10
2018-05-27T11:56:39.979Z,28.90
2018-05-27T11:59:16.116Z,28.80
2018-05-27T12:01:45.412Z,30.00
2018-05-27T12:04:17.951Z,32.20
2018-05-27T12:06:46.264Z,31.90
2018-05-27T12:09:38.775Z,31.60
2018-05-27T12:12:08.915Z,31.30
2018-05-27T12:14:41.126Z,32.80
2018-05-27T12:17:09.428Z,34.90
2018-05-27T12:19:43.261Z,33.10
2018-05-27T12:22:17.775Z,31.10
2018-05-27T12:24:47.896Z,27.10
2018-05-27T12:27:23.487Z,25.70
2018-05-27T12:29:56.552Z,26.10
2018-05-27T12:32:29.718Z,26.60
2018-05-27T12:35:00.598Z,26.70
2018-05-27T12:37:42.616Z,29.10
2018-05-27T12:40:19.494Z,29.10
2018-05-27T12:42:56.771Z,29.20
2018-05-27T12:45:27.035Z,29.50
2018-05-27T12:48:06.787Z,27.80
2018-05-27T12:50:41.707Z,27.60
2018-05-27T12:53:11.086Z,27.60
2018-05-27T12:58:23.006Z,32.20
2018-05-27T13:00:52.717Z,35.40
2018-05-27T13:03:23.320Z,37.90
2018-05-27T13:05:53.992Z,37.90
2018-05-27T13:08:30.811Z,35.40
2018-05-27T13:11:03.856Z,36.30
2018-05-27T13:13:38.811Z,35.00
2018-05-27T13:16:12.491Z,34.20
2018-05-27T13:18:43.735Z,34.20
2018-05-27T13:21:15.095Z,36.70
2018-05-27T13:23:46.882Z,38.60
2018-05-27T13:26:34.423Z,38.00
2018-05-27T13:29:22.186Z,38.20
2018-05-27T13:31:56.035Z,38.40
2018-05-27T13:34:29.338Z,35.70
2018-05-27T13:36:59.772Z,36.50
2018-05-27T13:39:29.324Z,36.40
2018-05-27T13:42:04.895Z,35.20
2018-05-27T13:44:37.115Z,35.40
2018-05-27T13:47:13.976Z,35.20
2018-05-27T13:49:53.411Z,33.70
2018-05-27T13:52:29.347Z,34.80
2018-05-27T13:55:00.192Z,32.90
2018-05-27T13:57:46.773Z,32.90
2018-05-27T14:00:22.540Z,32.20
2018-05-27T14:02:56.869Z,30.70
2018-05-27T14:05:31.187Z,32.80
2018-05-27T14:08:03.120Z,32.50
2018-05-27T14:10:38.744Z,32.50
2018-05-27T14:13:08.055Z,32.50
2018-05-27T14:15:36.358Z,31.70
2018-05-27T14:18:04.682Z,34.30
2018-05-27T14:20:37.804Z,35.60
2018-05-27T14:23:10.808Z,38.00
2018-05-27T14:25:47.259Z,41.80
2018-05-27T14:28:19.473Z,43.40
2018-05-27T14:30:48.549Z,43.80
2018-05-27T14:33:16.940Z,43.70
2018-05-27T14:35:49.613Z,39.50
2018-05-27T14:38:44.037Z,37.20
2018-05-27T14:41:17.512Z,34.90
2018-05-27T14:43:48.553Z,34.30
2018-05-27T14:46:24.817Z,35.00
2018-05-27T14:49:03.404Z,34.90
2018-05-27T14:51:33.345Z,34.80
2018-05-27T14:54:07.737Z,34.20
2018-05-27T14:56:36.296Z,34.10
2018-05-27T14:59:17.078Z,36.20
2018-05-27T15:01:52.227Z,35.50
2018-05-27T15:04:28.143Z,34.70
2018-05-27T15:06:56.486Z,35.30
2018-05-27T15:09:25.832Z,34.30
2018-05-27T15:11:59.948Z,33.40
2018-05-27T15:14:32.013Z,34.70
2018-05-27T15:17:04.051Z,33.30
2018-05-27T15:19:32.405Z,36.30
2018-05-27T15:22:01.738Z,38.30
2018-05-27T15:24:30.136Z,37.30
2018-05-27T15:27:02.597Z,38.00
2018-05-27T15:29:38.353Z,39.20
2018-05-27T15:32:06.903Z,41.40
2018-05-27T15:34:40.632Z,43.20
2018-05-27T15:37:09.217Z,42.50
2018-05-27T15:39:39.564Z,41.40
2018-05-27T15:42:22.502Z,39.70
2018-05-27T15:44:50.788Z,36.70
2018-05-27T15:47:19.045Z,36.90
2018-05-27T15:49:59.891Z,36.50
2018-05-27T15:52:29.114Z,39.30
2018-05-27T15:55:08.863Z,39.50
2018-05-27T15:57:37.275Z,37.70
2018-05-27T16:00:05.531Z,36.80
2018-05-27T16:02:43.280Z,38.20
2018-05-27T16:05:11.643Z,37.00
2018-05-27T16:07:42.824Z,38.20
2018-05-27T16:10:15.460Z,38.20
2018-05-27T16:12:57.654Z,37.30
2018-05-27T16:15:52.455Z,37.30
2018-05-27T16:18:28.955Z,36.10
2018-05-27T16:21:00.314Z,38.30
2018-05-27T16:23:29.814Z,39.30
2018-05-27T16:26:00.798Z,39.30
2018-05-27T16:28:36.583Z,38.50
2018-05-27T16:31:09.823Z,38.60
2018-05-27T16:33:38.321Z,38.50
2018-05-27T16:36:18.162Z,37.60
2018-05-27T16:38:55.326Z,36.50
2018-05-27T16:41:31.051Z,36.90
2018-05-27T16:44:03.669Z,38.10
2018-05-27T16:46:37.433Z,36.60
2018-05-27T16:49:08.851Z,36.40
2018-05-27T16:51:37.124Z,35.40
2018-05-27T16:54:26.820Z,33.90
2018-05-27T16:57:06.259Z,37.00
2018-05-27T16:59:40.091Z,37.00
2018-05-27T17:02:28.224Z,37.90
2018-05-27T17:04:58.745Z,37.40
2018-05-27T17:07:32.621Z,37.00
2018-05-27T17:10:08.835Z,37.00
2018-05-27T17:12:42.859Z,38.10
2018-05-27T17:15:26.513Z,39.40
2018-05-27T17:17:59.669Z,41.00
2018-05-27T17:20:45.424Z,41.70
2018-05-27T17:23:16.178Z,43.40
2018-05-27T17:26:08.503Z,45.40
2018-05-27T17:28:49.307Z,46.10
2018-05-27T17:31:44.101Z,45.70
2018-05-27T17:34:17.747Z,46.50
2018-05-27T17:36:52.711Z,47.20
2018-05-27T17:39:20.950Z,47.90
2018-05-27T17:44:41.522Z,48.80
2018-05-27T17:47:10.845Z,49.60
2018-05-27T17:49:40.960Z,49.90
2018-05-27T17:52:10.224Z,49.50
2018-05-27T17:54:40.505Z,51.30
2018-05-27T17:57:12.595Z,51.20
2018-05-27T17:59:49.188Z,51.20
2018-05-27T18:02:28.354Z,52.00
2018-05-27T18:04:58.999Z,52.00
2018-05-27T18:07:30.376Z,52.50
2018-05-27T18:10:01.397Z,52.30
2018-05-27T18:12:38.378Z,52.30
2018-05-27T18:15:08.321Z,52.70
2018-05-27T18:17:40.781Z,53.20
2018-05-27T18:20:09.187Z,54.20
2018-05-27T18:22:42.868Z,55.40
2018-05-27T18:25:32.652Z,55.40
2018-05-27T18:28:07.513Z,55.00
2018-05-27T18:30:38.539Z,53.70
2018-05-27T18:33:08.046Z,53.70
2018-05-27T18:35:46.939Z,54.20
2018-05-27T18:38:17.209Z,54.80
2018-05-27T18:40:46.368Z,57.00
2018-05-27T18:43:16.883Z,56.90
2018-05-27T18:45:45.325Z,57.70
2018-05-27T18:48:14.384Z,59.40
2018-05-27T18:50:49.640Z,59.40
2018-05-27T18:53:18.738Z,60.10
2018-05-27T18:55:47.895Z,61.20
2018-05-27T18:58:20.027Z,61.20
2018-05-27T19:00:51.763Z,62.70
2018-05-27T19:03:22.833Z,63.80
2018-05-27T19:05:52.074Z,63.70
2018-05-27T19:08:26.800Z,65.50
2018-05-27T19:10:55.243Z,67.30
2018-05-27T19:13:27.565Z,67.90
2018-05-27T19:16:09.730Z,70.40
2018-05-27T19:18:40.922Z,70.20
2018-05-27T19:21:22.058Z,70.60
2018-05-27T19:23:50.408Z,70.80
2018-05-27T19:26:24.574Z,71.40
2018-05-27T19:28:53.883Z,71.90
2018-05-27T19:31:40.792Z,72.00
2018-05-27T19:34:12.453Z,71.70
2018-05-27T19:36:40.717Z,71.60
2018-05-27T19:39:12.162Z,71.40
2018-05-27T19:41:43.960Z,71.40
2018-05-27T19:44:14.984Z,73.70
2018-05-27T19:46:43.528Z,73.70
2018-05-27T19:49:11.915Z,74.00
2018-05-27T19:51:40.223Z,73.80
2018-05-27T19:54:09.182Z,74.90
2018-05-27T19:56:38.522Z,75.20
2018-05-27T19:59:09.545Z,73.50
2018-05-27T20:01:39.119Z,73.40
2018-05-27T20:04:12.207Z,73.00
2018-05-27T20:06:50.636Z,72.50
2018-05-27T20:09:22.605Z,72.60
2018-05-27T20:11:51.913Z,75.10
2018-05-27T20:14:20.190Z,75.60
2018-05-27T20:16:54.239Z,77.00
2018-05-27T20:19:22.609Z,77.70
2018-05-27T20:21:55.241Z,77.80
2018-05-27T20:24:28.156Z,77.80
2018-05-27T20:26:57.611Z,76.90
2018-05-27T20:29:29.819Z,78.10
2018-05-27T20:31:59.160Z,79.50
2018-05-27T20:34:33.008Z,80.30
2018-05-27T20:37:03.350Z,80.30
2018-05-27T20:39:32.902Z,80.90
2018-05-27T20:42:09.728Z,82.10
2018-05-27T20:44:45.678Z,78.30
2018-05-27T20:47:27.442Z,78.30
2018-05-27T20:49:55.795Z,76.20
2018-05-27T20:52:31.426Z,80.60
2018-05-27T20:55:06.522Z,80.60
2018-05-27T20:57:37.052Z,81.40
2018-05-27T21:00:07.798Z,83.30
2018-05-27T21:02:46.770Z,82.80
2018-05-27T21:05:23.248Z,83.00
2018-05-27T21:07:54.233Z,83.10
2018-05-27T21:10:23.900Z,83.10
2018-05-27T21:13:05.733Z,83.50
2018-05-27T21:15:41.214Z,83.90
2018-05-27T21:18:29.727Z,83.00
2018-05-27T21:21:13.461Z,84.30
2018-05-27T21:23:43.081Z,84.00
2018-05-27T21:26:16.710Z,83.20
2018-05-27T21:28:56.426Z,82.00
2018-05-27T21:31:26.754Z,82.00
2018-05-27T21:34:07.988Z,82.20
2018-05-27T21:36:43.943Z,82.50
2018-05-27T21:39:14.728Z,82.50
2018-05-27T21:41:56.176Z,82.50
2018-05-27T21:44:31.707Z,83.80
2018-05-27T21:47:01.551Z,83.90
2018-05-27T21:49:34.323Z,84.50
2018-05-27T21:52:13.619Z,85.10
2018-05-27T21:54:45.648Z,84.90
2018-05-27T21:57:21.228Z,85.80
2018-05-27T22:00:00.905Z,87.20
2018-05-27T22:02:47.063Z,88.70
2018-05-27T22:05:25.567Z,89.80
2018-05-27T22:07:54.110Z,90.20
2018-05-27T22:10:25.846Z,90.40
2018-05-27T22:12:59.623Z,90.80
2018-05-27T22:15:30.564Z,90.80
2018-05-27T22:18:03.771Z,90.70
2018-05-27T22:20:37.235Z,91.20
2018-05-27T22:23:07.336Z,91.20
2018-05-27T22:28:44.003Z,91.60
2018-05-27T22:31:18.181Z,91.80
2018-05-27T22:33:52.294Z,91.10
2018-05-27T22:36:35.267Z,91.10
2018-05-27T22:39:09.836Z,91.20
2018-05-27T22:41:49.470Z,91.00
2018-05-27T22:44:23.319Z,90.90
2018-05-27T22:46:53.783Z,91.60
2018-05-27T22:49:25.467Z,91.50
2018-05-27T22:51:55.846Z,91.30
2018-05-27T22:54:25.221Z,91.40
2018-05-27T22:57:06.090Z,91.90
2018-05-27T22:59:47.119Z,92.30
2018-05-27T23:02:21.759Z,92.30
2018-05-27T23:04:54.042Z,92.30
2018-05-27T23:07:24.152Z,92.30
2018-05-27T23:09:55.911Z,92.30
2018-05-27T23:12:26.832Z,91.90
2018-05-27T23:14:59.023Z,92.00
2018-05-27T23:17:28.473Z,91.90
2018-05-27T23:20:00.091Z,91.70
2018-05-27T23:22:43.424Z,91.50
2018-05-27T23:25:16.409Z,91.90
2018-05-27T23:27:47.750Z,91.60
2018-05-27T23:30:24.576Z,91.90
2018-05-27T23:32:53.938Z,91.60
2018-05-27T23:35:34.645Z,91.70
2018-05-27T23:38:03.099Z,91.50
2018-05-27T23:40:32.172Z,92.30
2018-05-27T23:43:01.498Z,92.30
2018-05-27T23:45:43.971Z,92.80
2018-05-27T23:48:12.267Z,92.80
2018-05-27T23:50:40.513Z,92.90
2018-05-27T23:53:10.779Z,93.00
2018-05-27T23:55:52.886Z,93.30
2018-05-27T23:58:22.071Z,93.30
